sensor_id;sensor_type;location;lat;lon;timestamp;pressure;altitude;pressure_sealevel;temperature;humidity
73594;BME280;62064;53.406;23.500;2022-08-11T00:00:04;100580.47;;;22.15;60.75
73594;BME280;62064;53.406;23.500;2022-08-11T00:02:54;100578.50;;;22.10;60.60
73594;BME280;62064;53.406;23.500;2022-08-11T00:05:21;100566.69;;;22.05;60.97
73594;BME280;62064;53.406;23.500;2022-08-11T00:07:50;100582.56;;;22.08;60.43
73594;BME280;62064;53.406;23.500;2022-08-11T00:10:23;100580.09;;;22.06;60.70
73594;BME280;62064;53.406;23.500;2022-08-11T00:12:55;100586.38;;;22.07;60.26
73594;BME280;62064;53.406;23.500;2022-08-11T00:15:22;100579.19;;;22.00;60.81
73594;BME280;62064;53.406;23.500;2022-08-11T00:17:56;100576.78;;;22.04;60.66
73594;BME280;62064;53.406;23.500;2022-08-11T00:20:29;100586.38;;;22.07;60.60
73594;BME280;62064;53.406;23.500;2022-08-11T00:23:01;100580.84;;;22.01;60.91
73594;BME280;62064;53.406;23.500;2022-08-11T00:25:29;100578.69;;;22.04;61.14
73594;BME280;62064;53.406;23.500;2022-08-11T00:27:56;100570.75;;;22.02;60.61
73594;BME280;62064;53.406;23.500;2022-08-11T00:30:22;100596.56;;;22.11;60.67
73594;BME280;62064;53.406;23.500;2022-08-11T00:32:54;100594.56;;;22.07;60.79
73594;BME280;62064;53.406;23.500;2022-08-11T00:35:25;100605.81;;;22.10;60.82
73594;BME280;62064;53.406;23.500;2022-08-11T00:37:53;100591.28;;;22.05;61.11
73594;BME280;62064;53.406;23.500;2022-08-11T00:40:41;100582.44;;;21.97;60.91
73594;BME280;62064;53.406;23.500;2022-08-11T00:52:18;100591.28;;;22.05;61.07
73594;BME280;62064;53.406;23.500;2022-08-11T01:00:25;100590.13;;;22.00;61.31
73594;BME280;62064;53.406;23.500;2022-08-11T01:14:03;100587.31;;;21.95;61.29
73594;BME280;62064;53.406;23.500;2022-08-11T01:17:02;100592.78;;;21.95;61.35
73594;BME280;62064;53.406;23.500;2022-08-11T01:46:03;100561.84;;;21.73;61.60
73594;BME280;62064;53.406;23.500;2022-08-11T01:48:41;100578.28;;;21.78;62.04
73594;BME280;62064;53.406;23.500;2022-08-11T01:51:14;100587.06;;;21.80;61.37
73594;BME280;62064;53.406;23.500;2022-08-11T02:02:04;100595.97;;;21.76;62.07
73594;BME280;62064;53.406;23.500;2022-08-11T02:10:48;100595.38;;;21.74;61.78
73594;BME280;62064;53.406;23.500;2022-08-11T02:13:46;100591.50;;;21.70;62.01
73594;BME280;62064;53.406;23.500;2022-08-11T02:16:54;100576.88;;;21.59;61.87
73594;BME280;62064;53.406;23.500;2022-08-11T02:19:41;100603.56;;;21.74;61.65
73594;BME280;62064;53.406;23.500;2022-08-11T02:25:58;100595.06;;;21.70;61.96
73594;BME280;62064;53.406;23.500;2022-08-11T02:29:03;100599.97;;;21.68;62.05
73594;BME280;62064;53.406;23.500;2022-08-11T02:31:39;100594.72;;;21.67;61.90
73594;BME280;62064;53.406;23.500;2022-08-11T02:34:37;100599.34;;;21.66;61.85
73594;BME280;62064;53.406;23.500;2022-08-11T02:37:13;100595.00;;;21.65;62.10
73594;BME280;62064;53.406;23.500;2022-08-11T02:39:53;100597.41;;;21.62;62.19
73594;BME280;62064;53.406;23.500;2022-08-11T02:42:37;100604.03;;;21.66;62.34
73594;BME280;62064;53.406;23.500;2022-08-11T02:56:51;100582.75;;;21.51;62.03
73594;BME280;62064;53.406;23.500;2022-08-11T02:59:42;100609.28;;;21.55;62.58
73594;BME280;62064;53.406;23.500;2022-08-11T03:10:31;100611.78;;;21.57;62.53
73594;BME280;62064;53.406;23.500;2022-08-11T03:16:28;100595.22;;;21.47;62.28
73594;BME280;62064;53.406;23.500;2022-08-11T03:19:25;100610.13;;;21.56;62.34
73594;BME280;62064;53.406;23.500;2022-08-11T03:22:16;100605.72;;;21.55;62.13
73594;BME280;62064;53.406;23.500;2022-08-11T03:30:15;100613.09;;;21.54;62.28
73594;BME280;62064;53.406;23.500;2022-08-11T03:38:54;100591.94;;;21.45;62.67
73594;BME280;62064;53.406;23.500;2022-08-11T03:41:42;100614.19;;;21.53;62.70
73594;BME280;62064;53.406;23.500;2022-08-11T03:44:57;100607.81;;;21.48;62.60
73594;BME280;62064;53.406;23.500;2022-08-11T03:53:17;100625.66;;;21.55;62.49
73594;BME280;62064;53.406;23.500;2022-08-11T04:14:24;100620.53;;;21.59;62.02
73594;BME280;62064;53.406;23.500;2022-08-11T04:16:40;100614.97;;;21.54;62.11
73594;BME280;62064;53.406;23.500;2022-08-11T04:35:31;100614.44;;;21.69;62.13
73594;BME280;62064;53.406;23.500;2022-08-11T04:38:16;100599.88;;;21.63;62.25
73594;BME280;62064;53.406;23.500;2022-08-11T04:49:44;100603.84;;;21.72;62.10
73594;BME280;62064;53.406;23.500;2022-08-11T04:55:56;100610.97;;;21.73;62.06
73594;BME280;62064;53.406;23.500;2022-08-11T05:13:45;100603.34;;;21.75;62.06
73594;BME280;62064;53.406;23.500;2022-08-11T05:16:56;100609.44;;;21.82;62.17
73594;BME280;62064;53.406;23.500;2022-08-11T05:19:44;100604.00;;;21.82;61.58
73594;BME280;62064;53.406;23.500;2022-08-11T05:22:30;100602.41;;;21.86;61.59
73594;BME280;62064;53.406;23.500;2022-08-11T05:25:43;100606.47;;;21.84;61.55
73594;BME280;62064;53.406;23.500;2022-08-11T05:28:34;100610.94;;;21.90;61.66
73594;BME280;62064;53.406;23.500;2022-08-11T05:31:30;100601.84;;;21.84;61.87
73594;BME280;62064;53.406;23.500;2022-08-11T05:34:25;100619.50;;;21.93;61.68
73594;BME280;62064;53.406;23.500;2022-08-11T05:37:13;100604.31;;;21.86;61.25
73594;BME280;62064;53.406;23.500;2022-08-11T05:39:48;100602.41;;;21.86;61.65
73594;BME280;62064;53.406;23.500;2022-08-11T05:42:38;100606.31;;;21.90;61.39
73594;BME280;62064;53.406;23.500;2022-08-11T05:45:26;100613.28;;;21.98;61.35
73594;BME280;62064;53.406;23.500;2022-08-11T05:48:12;100598.84;;;21.86;62.03
73594;BME280;62064;53.406;23.500;2022-08-11T05:51:00;100616.84;;;21.98;61.97
73594;BME280;62064;53.406;23.500;2022-08-11T05:53:56;100612.94;;;21.94;62.07
73594;BME280;62064;53.406;23.500;2022-08-11T05:56:46;100587.13;;;21.85;61.87
73594;BME280;62064;53.406;23.500;2022-08-11T05:59:17;100615.25;;;22.02;61.40
73594;BME280;62064;53.406;23.500;2022-08-11T06:01:45;100626.59;;;22.11;61.49
73594;BME280;62064;53.406;23.500;2022-08-11T06:04:17;100632.28;;;22.10;61.67
73594;BME280;62064;53.406;23.500;2022-08-11T06:06:49;100626.91;;;22.15;61.54
73594;BME280;62064;53.406;23.500;2022-08-11T06:09:37;100628.56;;;22.16;61.97
73594;BME280;62064;53.406;23.500;2022-08-11T06:12:07;100638.47;;;22.22;61.56
73594;BME280;62064;53.406;23.500;2022-08-11T06:14:40;100627.19;;;22.13;61.65
73594;BME280;62064;53.406;23.500;2022-08-11T06:17:08;100634.16;;;22.26;61.80
73594;BME280;62064;53.406;23.500;2022-08-11T06:19:37;100634.00;;;22.32;61.97
73594;BME280;62064;53.406;23.500;2022-08-11T06:22:09;100638.72;;;22.37;61.89
73594;BME280;62064;53.406;23.500;2022-08-11T06:24:40;100632.75;;;22.40;61.76
73594;BME280;62064;53.406;23.500;2022-08-11T06:27:07;100626.78;;;22.43;61.64
73594;BME280;62064;53.406;23.500;2022-08-11T06:29:36;100626.78;;;22.43;61.69
73594;BME280;62064;53.406;23.500;2022-08-11T06:32:07;100640.50;;;22.48;61.45
73594;BME280;62064;53.406;23.500;2022-08-11T06:35:20;100624.63;;;22.45;60.88
73594;BME280;62064;53.406;23.500;2022-08-11T06:38:12;100625.78;;;22.49;60.99
73594;BME280;62064;53.406;23.500;2022-08-11T06:46:08;100616.34;;;22.40;59.75
73594;BME280;62064;53.406;23.500;2022-08-11T06:48:38;100629.59;;;22.48;59.21
73594;BME280;62064;53.406;23.500;2022-08-11T06:51:08;100620.78;;;22.46;58.94
73594;BME280;62064;53.406;23.500;2022-08-11T06:53:57;100618.03;;;22.41;59.26
73594;BME280;62064;53.406;23.500;2022-08-11T06:56:30;100627.69;;;22.48;59.40
73594;BME280;62064;53.406;23.500;2022-08-11T06:59:16;100624.94;;;22.48;59.04
73594;BME280;62064;53.406;23.500;2022-08-11T07:04:53;100617.00;;;22.47;59.79
73594;BME280;62064;53.406;23.500;2022-08-11T07:10:32;100619.53;;;22.54;60.08
73594;BME280;62064;53.406;23.500;2022-08-11T07:13:27;100612.91;;;22.49;59.57
73594;BME280;62064;53.406;23.500;2022-08-11T07:16:17;100614.66;;;22.56;60.06
73594;BME280;62064;53.406;23.500;2022-08-11T07:18:47;100611.59;;;22.52;59.84
73594;BME280;62064;53.406;23.500;2022-08-11T07:24:27;100611.69;;;22.57;59.92
73594;BME280;62064;53.406;23.500;2022-08-11T07:27:15;100595.75;;;22.54;59.66
73594;BME280;62064;53.406;23.500;2022-08-11T07:30:05;100594.69;;;22.55;59.64
73594;BME280;62064;53.406;23.500;2022-08-11T07:32:36;100601.81;;;22.56;59.01
73594;BME280;62064;53.406;23.500;2022-08-11T07:35:12;100609.00;;;22.62;59.46
73594;BME280;62064;53.406;23.500;2022-08-11T07:37:44;100619.41;;;22.65;59.80
73594;BME280;62064;53.406;23.500;2022-08-11T07:40:12;100604.66;;;22.66;59.43
73594;BME280;62064;53.406;23.500;2022-08-11T07:42:42;100602.22;;;22.65;59.50
73594;BME280;62064;53.406;23.500;2022-08-11T07:45:13;100606.13;;;22.69;59.19
73594;BME280;62064;53.406;23.500;2022-08-11T07:47:59;100592.88;;;22.61;59.36
73594;BME280;62064;53.406;23.500;2022-08-11T07:50:45;100605.31;;;22.73;59.35
73594;BME280;62064;53.406;23.500;2022-08-11T07:53:29;100613.28;;;22.75;59.57
73594;BME280;62064;53.406;23.500;2022-08-11T07:55:59;100605.31;;;22.73;59.41
73594;BME280;62064;53.406;23.500;2022-08-11T07:58:28;100584.69;;;22.66;59.55
73594;BME280;62064;53.406;23.500;2022-08-11T08:01:18;100606.75;;;22.76;59.42
73594;BME280;62064;53.406;23.500;2022-08-11T08:04:06;100615.81;;;22.81;59.32
73594;BME280;62064;53.406;23.500;2022-08-11T08:06:52;100614.75;;;22.82;59.18
73594;BME280;62064;53.406;23.500;2022-08-11T08:09:37;100618.06;;;22.84;59.79
73594;BME280;62064;53.406;23.500;2022-08-11T08:12:24;100610.63;;;22.80;59.86
73594;BME280;62064;53.406;23.500;2022-08-11T08:15:11;100597.47;;;22.77;59.84
73594;BME280;62064;53.406;23.500;2022-08-11T08:17:59;100616.50;;;22.93;60.03
73594;BME280;62064;53.406;23.500;2022-08-11T08:20:29;100616.56;;;22.99;60.21
73594;BME280;62064;53.406;23.500;2022-08-11T08:22:57;100611.03;;;22.93;59.73
73594;BME280;62064;53.406;23.500;2022-08-11T08:25:28;100620.97;;;23.00;60.30
73594;BME280;62064;53.406;23.500;2022-08-11T08:27:56;100617.09;;;22.96;59.82
73594;BME280;62064;53.406;23.500;2022-08-11T08:30:27;100619.06;;;23.00;59.90
73594;BME280;62064;53.406;23.500;2022-08-11T08:33:14;100628.09;;;23.01;59.36
73594;BME280;62064;53.406;23.500;2022-08-11T08:35:42;100605.56;;;22.93;59.37
73594;BME280;62064;53.406;23.500;2022-08-11T08:38:10;100618.78;;;23.02;59.52
73594;BME280;62064;53.406;23.500;2022-08-11T08:40:41;100609.72;;;22.96;59.17
73594;BME280;62064;53.406;23.500;2022-08-11T08:43:14;100611.69;;;23.01;59.03
73594;BME280;62064;53.406;23.500;2022-08-11T08:45:43;100606.22;;;23.01;58.83
73594;BME280;62064;53.406;23.500;2022-08-11T08:48:17;100608.44;;;23.04;59.02
73594;BME280;62064;53.406;23.500;2022-08-11T08:51:00;100611.72;;;23.06;59.37
73594;BME280;62064;53.406;23.500;2022-08-11T08:53:49;100618.53;;;23.03;58.63
73594;BME280;62064;53.406;23.500;2022-08-11T08:56:17;100605.09;;;23.02;58.84
73594;BME280;62064;53.406;23.500;2022-08-11T08:58:47;100615.28;;;23.06;59.11
73594;BME280;62064;53.406;23.500;2022-08-11T09:01:15;100623.25;;;23.08;58.78
73594;BME280;62064;53.406;23.500;2022-08-11T09:03:46;100606.25;;;23.06;58.39
73594;BME280;62064;53.406;23.500;2022-08-11T09:06:13;100589.81;;;23.01;58.48
73594;BME280;62064;53.406;23.500;2022-08-11T09:08:44;100596.41;;;23.05;58.67
73594;BME280;62064;53.406;23.500;2022-08-11T09:11:12;100597.78;;;23.07;58.37
73594;BME280;62064;53.406;23.500;2022-08-11T09:13:58;100600.28;;;23.09;58.54
73594;BME280;62064;53.406;23.500;2022-08-11T09:16:25;100611.25;;;23.14;58.56
73594;BME280;62064;53.406;23.500;2022-08-11T09:18:51;100610.44;;;23.13;58.22
73594;BME280;62064;53.406;23.500;2022-08-11T09:21:19;100615.91;;;23.13;58.47
73594;BME280;62064;53.406;23.500;2022-08-11T09:23:49;100622.25;;;23.19;58.34
73594;BME280;62064;53.406;23.500;2022-08-11T09:26:36;100626.66;;;23.20;58.42
73594;BME280;62064;53.406;23.500;2022-08-11T09:29:22;100612.69;;;23.21;57.81
73594;BME280;62064;53.406;23.500;2022-08-11T09:31:51;100623.97;;;23.25;58.17
73594;BME280;62064;53.406;23.500;2022-08-11T09:34:18;100611.38;;;23.24;57.37
73594;BME280;62064;53.406;23.500;2022-08-11T09:36:44;100616.31;;;23.27;57.76
73594;BME280;62064;53.406;23.500;2022-08-11T09:39:30;100618.81;;;23.28;57.35
73594;BME280;62064;53.406;23.500;2022-08-11T09:42:19;100610.03;;;23.26;57.49
73594;BME280;62064;53.406;23.500;2022-08-11T09:44:46;100605.44;;;23.32;57.26
73594;BME280;62064;53.406;23.500;2022-08-11T09:47:24;100587.59;;;23.24;57.58
73594;BME280;62064;53.406;23.500;2022-08-11T09:49:58;100605.16;;;23.33;57.45
73594;BME280;62064;53.406;23.500;2022-08-11T09:52:34;100588.44;;;23.30;57.79
73594;BME280;62064;53.406;23.500;2022-08-11T09:55:02;100588.25;;;23.36;57.35
73594;BME280;62064;53.406;23.500;2022-08-11T09:57:39;100578.63;;;23.34;57.34
73594;BME280;62064;53.406;23.500;2022-08-11T10:00:32;100593.19;;;23.39;57.11
73594;BME280;62064;53.406;23.500;2022-08-11T10:03:07;100583.06;;;23.40;57.24
73594;BME280;62064;53.406;23.500;2022-08-11T10:05:36;100576.78;;;23.39;57.46
73594;BME280;62064;53.406;23.500;2022-08-11T10:08:26;100567.97;;;23.37;57.06
73594;BME280;62064;53.406;23.500;2022-08-11T10:10:53;100565.25;;;23.37;57.13
73594;BME280;62064;53.406;23.500;2022-08-11T10:13:21;100565.91;;;23.45;57.33
73594;BME280;62064;53.406;23.500;2022-08-11T10:15:53;100538.66;;;23.33;56.77
73594;BME280;62064;53.406;23.500;2022-08-11T10:18:29;100555.22;;;23.43;57.24
73594;BME280;62064;53.406;23.500;2022-08-11T10:21:37;100558.25;;;23.47;57.25
73594;BME280;62064;53.406;23.500;2022-08-11T10:24:06;100560.22;;;23.51;57.15
73594;BME280;62064;53.406;23.500;2022-08-11T10:26:53;100537.59;;;23.34;57.01
73594;BME280;62064;53.406;23.500;2022-08-11T10:29:22;100570.63;;;23.54;56.93
73594;BME280;62064;53.406;23.500;2022-08-11T10:32:08;100567.88;;;23.54;56.48
73594;BME280;62064;53.406;23.500;2022-08-11T10:34:55;100554.47;;;23.53;56.61
73594;BME280;62064;53.406;23.500;2022-08-11T10:37:23;100565.19;;;23.59;56.71
73594;BME280;62064;53.406;23.500;2022-08-11T10:39:51;100566.88;;;23.60;56.96
73594;BME280;62064;53.406;23.500;2022-08-11T10:42:18;100570.16;;;23.62;56.25
73594;BME280;62064;53.406;23.500;2022-08-11T10:45:05;100560.28;;;23.61;56.75
73594;BME280;62064;53.406;23.500;2022-08-11T10:47:54;100555.94;;;23.65;56.44
73594;BME280;62064;53.406;23.500;2022-08-11T10:50:21;100549.06;;;23.63;56.62
73594;BME280;62064;53.406;23.500;2022-08-11T10:53:07;100551.88;;;23.68;56.13
73594;BME280;62064;53.406;23.500;2022-08-11T10:55:52;100544.97;;;23.65;56.04
73594;BME280;62064;53.406;23.500;2022-08-11T10:58:39;100545.03;;;23.70;56.29
73594;BME280;62064;53.406;23.500;2022-08-11T11:01:26;100554.59;;;23.73;56.23
73594;BME280;62064;53.406;23.500;2022-08-11T11:04:10;100547.50;;;23.72;56.29
73594;BME280;62064;53.406;23.500;2022-08-11T11:07:02;100554.94;;;23.76;56.45
73594;BME280;62064;53.406;23.500;2022-08-11T11:10:05;100553.00;;;23.77;56.04
73594;BME280;62064;53.406;23.500;2022-08-11T11:15:13;100546.44;;;23.78;56.19
73594;BME280;62064;53.406;23.500;2022-08-11T11:18:15;100545.63;;;23.77;55.95
73594;BME280;62064;53.406;23.500;2022-08-11T11:20:58;100539.06;;;23.78;55.61
73594;BME280;62064;53.406;23.500;2022-08-11T11:23:36;100543.69;;;23.78;56.10
73594;BME280;62064;53.406;23.500;2022-08-11T11:34:00;100548.69;;;23.86;55.60
73594;BME280;62064;53.406;23.500;2022-08-11T11:36:44;100530.78;;;23.73;55.73
73594;BME280;62064;53.406;23.500;2022-08-11T11:39:11;100547.34;;;23.89;55.84
73594;BME280;62064;53.406;23.500;2022-08-11T11:41:38;100545.69;;;23.88;55.59
73594;BME280;62064;53.406;23.500;2022-08-11T11:44:05;100532.53;;;23.90;55.51
73594;BME280;62064;53.406;23.500;2022-08-11T11:46:31;100527.06;;;23.90;55.35
73594;BME280;62064;53.406;23.500;2022-08-11T11:48:59;100523.25;;;23.91;55.29
73594;BME280;62064;53.406;23.500;2022-08-11T11:51:32;100513.66;;;23.88;55.56
73594;BME280;62064;53.406;23.500;2022-08-11T11:53:59;100514.78;;;23.92;55.11
73594;BME280;62064;53.406;23.500;2022-08-11T11:56:28;100516.94;;;23.90;55.46
73594;BME280;62064;53.406;23.500;2022-08-11T11:59:01;100533.97;;;23.97;55.45
73594;BME280;62064;53.406;23.500;2022-08-11T12:02:00;100521.09;;;23.98;55.15
73594;BME280;62064;53.406;23.500;2022-08-11T12:04:26;100516.19;;;24.00;55.47
73594;BME280;62064;53.406;23.500;2022-08-11T12:06:54;100496.69;;;23.91;55.38
73594;BME280;62064;53.406;23.500;2022-08-11T12:09:40;100495.88;;;23.91;55.26
73594;BME280;62064;53.406;23.500;2022-08-11T12:12:07;100489.31;;;23.97;55.28
73594;BME280;62064;53.406;23.500;2022-08-11T12:14:53;100494.81;;;24.02;55.15
73594;BME280;62064;53.406;23.500;2022-08-11T12:17:20;100486.06;;;24.00;55.35
73594;BME280;62064;53.406;23.500;2022-08-11T12:19:46;100500.34;;;24.07;55.04
73594;BME280;62064;53.406;23.500;2022-08-11T12:22:13;100480.00;;;23.98;55.03
73594;BME280;62064;53.406;23.500;2022-08-11T12:24:59;100497.06;;;24.10;54.60
73594;BME280;62064;53.406;23.500;2022-08-11T12:27:44;100495.97;;;24.11;54.96
73594;BME280;62064;53.406;23.500;2022-08-11T12:30:11;100475.66;;;24.02;54.66
73594;BME280;62064;53.406;23.500;2022-08-11T12:32:39;100476.50;;;24.07;55.40
73594;BME280;62064;53.406;23.500;2022-08-11T12:35:06;100482.81;;;24.13;55.04
73594;BME280;62064;53.406;23.500;2022-08-11T12:37:43;100470.75;;;24.09;54.99
73594;BME280;62064;53.406;23.500;2022-08-11T12:40:14;100475.13;;;24.10;54.54
73594;BME280;62064;53.406;23.500;2022-08-11T12:43:02;100475.13;;;24.10;54.73
73594;BME280;62064;53.406;23.500;2022-08-11T12:45:51;100473.50;;;24.14;54.67
73594;BME280;62064;53.406;23.500;2022-08-11T12:48:20;100476.03;;;24.15;54.80
73594;BME280;62064;53.406;23.500;2022-08-11T12:51:10;100470.75;;;24.09;54.50
73594;BME280;62064;53.406;23.500;2022-08-11T12:53:59;100490.03;;;24.24;54.64
73594;BME280;62064;53.406;23.500;2022-08-11T12:56:27;100486.44;;;24.18;54.60
73594;BME280;62064;53.406;23.500;2022-08-11T12:59:16;100477.97;;;24.25;54.68
73594;BME280;62064;53.406;23.500;2022-08-11T13:02:01;100459.88;;;24.19;54.40
73594;BME280;62064;53.406;23.500;2022-08-11T13:04:47;100480.19;;;24.28;54.22
73594;BME280;62064;53.406;23.500;2022-08-11T13:07:27;100476.34;;;24.24;54.30
73594;BME280;62064;53.406;23.500;2022-08-11T13:09:56;100475.50;;;24.28;53.97
73594;BME280;62064;53.406;23.500;2022-08-11T13:12:22;100456.03;;;24.25;54.35
73594;BME280;62064;53.406;23.500;2022-08-11T13:15:10;100456.03;;;24.25;53.83
73594;BME280;62064;53.406;23.500;2022-08-11T13:17:39;100461.56;;;24.30;53.82
73594;BME280;62064;53.406;23.500;2022-08-11T13:20:09;100456.88;;;24.25;54.26
73594;BME280;62064;53.406;23.500;2022-08-11T13:22:36;100471.13;;;24.32;53.78
73594;BME280;62064;53.406;23.500;2022-08-11T13:25:05;100466.19;;;24.29;54.14
73594;BME280;62064;53.406;23.500;2022-08-11T13:27:32;100464.03;;;24.31;54.04
73594;BME280;62064;53.406;23.500;2022-08-11T13:29:59;100437.69;;;24.25;54.20
73594;BME280;62064;53.406;23.500;2022-08-11T13:32:49;100453.06;;;24.31;53.75
73594;BME280;62064;53.406;23.500;2022-08-11T13:35:18;100458.25;;;24.33;54.15
73594;BME280;62064;53.406;23.500;2022-08-11T13:37:53;100451.16;;;24.32;54.07
73594;BME280;62064;53.406;23.500;2022-08-11T13:40:21;100439.63;;;24.30;53.89
73594;BME280;62064;53.406;23.500;2022-08-11T13:42:51;100448.69;;;24.36;53.96
73594;BME280;62064;53.406;23.500;2022-08-11T13:45:19;100447.59;;;24.37;53.99
73594;BME280;62064;53.406;23.500;2022-08-11T13:47:47;100438.25;;;24.32;53.72
73594;BME280;62064;53.406;23.500;2022-08-11T13:50:15;100441.84;;;24.38;53.74
73594;BME280;62064;53.406;23.500;2022-08-11T13:52:41;100449.81;;;24.40;53.71
73594;BME280;62064;53.406;23.500;2022-08-11T13:55:10;100447.06;;;24.40;53.96
73594;BME280;62064;53.406;23.500;2022-08-11T13:57:48;100445.16;;;24.40;53.92
73594;BME280;62064;53.406;23.500;2022-08-11T14:00:15;100448.44;;;24.42;53.64
73594;BME280;62064;53.406;23.500;2022-08-11T14:02:43;100445.69;;;24.42;54.00
73594;BME280;62064;53.406;23.500;2022-08-11T14:05:22;100432.56;;;24.44;53.33
73594;BME280;62064;53.406;23.500;2022-08-11T14:07:52;100432.56;;;24.44;53.33
73594;BME280;62064;53.406;23.500;2022-08-11T14:10:26;100440.50;;;24.46;53.72
73594;BME280;62064;53.406;23.500;2022-08-11T14:13:02;100429.00;;;24.44;53.29
73594;BME280;62064;53.406;23.500;2022-08-11T14:15:52;100433.91;;;24.47;53.66
73594;BME280;62064;53.406;23.500;2022-08-11T14:18:29;100411.69;;;24.38;53.49
73594;BME280;62064;53.406;23.500;2022-08-11T14:20:58;100426.53;;;24.47;53.69
73594;BME280;62064;53.406;23.500;2022-08-11T14:23:47;100427.88;;;24.50;53.55
73594;BME280;62064;53.406;23.500;2022-08-11T14:26:16;100417.19;;;24.43;53.05
73594;BME280;62064;53.406;23.500;2022-08-11T14:28:50;100422.41;;;24.50;53.21
73594;BME280;62064;53.406;23.500;2022-08-11T14:31:18;100429.53;;;24.51;53.61
73594;BME280;62064;53.406;23.500;2022-08-11T14:33:44;100426.22;;;24.49;52.99
73594;BME280;62064;53.406;23.500;2022-08-11T14:36:11;100433.38;;;24.55;52.97
73594;BME280;62064;53.406;23.500;2022-08-11T14:38:39;100418.31;;;24.47;53.04
73594;BME280;62064;53.406;23.500;2022-08-11T14:41:06;100419.69;;;24.55;53.25
73594;BME280;62064;53.406;23.500;2022-08-11T14:43:53;100403.50;;;24.48;53.07
73594;BME280;62064;53.406;23.500;2022-08-11T14:46:39;100419.97;;;24.58;53.33
73594;BME280;62064;53.406;23.500;2022-08-11T14:49:25;100412.53;;;24.54;52.91
73594;BME280;62064;53.406;23.500;2022-08-11T14:51:52;100410.09;;;24.52;53.12
73594;BME280;62064;53.406;23.500;2022-08-11T14:54:29;100428.19;;;24.58;52.93
73594;BME280;62064;53.406;23.500;2022-08-11T14:57:16;100421.63;;;24.59;52.84
73594;BME280;62064;53.406;23.500;2022-08-11T14:59:43;100418.88;;;24.59;53.01
73594;BME280;62064;53.406;23.500;2022-08-11T15:02:13;100416.13;;;24.59;52.91
73594;BME280;62064;53.406;23.500;2022-08-11T15:05:16;100420.50;;;24.60;53.12
73594;BME280;62064;53.406;23.500;2022-08-11T15:07:45;100413.91;;;24.61;52.85
73594;BME280;62064;53.406;23.500;2022-08-11T15:10:12;100412.28;;;24.60;53.00
73594;BME280;62064;53.406;23.500;2022-08-11T15:12:41;100389.50;;;24.50;53.01
73594;BME280;62064;53.406;23.500;2022-08-11T15:15:09;100391.44;;;24.54;52.90
73594;BME280;62064;53.406;23.500;2022-08-11T15:17:56;100402.97;;;24.61;52.58
73594;BME280;62064;53.406;23.500;2022-08-11T15:20:25;100386.50;;;24.51;53.04
73594;BME280;62064;53.406;23.500;2022-08-11T15:23:11;100402.13;;;24.61;53.00
73594;BME280;62064;53.406;23.500;2022-08-11T15:25:59;100364.28;;;24.38;52.66
73594;BME280;62064;53.406;23.500;2022-08-11T15:28:28;100401.31;;;24.60;52.97
73594;BME280;62064;53.406;23.500;2022-08-11T15:31:15;100396.38;;;24.62;52.46
73594;BME280;62064;53.406;23.500;2022-08-11T15:34:04;100400.78;;;24.63;52.66
73594;BME280;62064;53.406;23.500;2022-08-11T15:36:55;100372.22;;;24.49;52.99
73594;BME280;62064;53.406;23.500;2022-08-11T15:46:08;100402.41;;;24.64;52.89
73594;BME280;62064;53.406;23.500;2022-08-11T15:48:56;100397.75;;;24.65;52.93
73594;BME280;62064;53.406;23.500;2022-08-11T15:51:35;100393.06;;;24.60;52.59
73594;BME280;62064;53.406;23.500;2022-08-11T15:54:09;100396.94;;;24.59;52.34
73594;BME280;62064;53.406;23.500;2022-08-11T15:56:39;100402.97;;;24.66;52.94
73594;BME280;62064;53.406;23.500;2022-08-11T15:59:08;100405.72;;;24.66;52.26
73594;BME280;62064;53.406;23.500;2022-08-11T16:01:56;100396.41;;;24.67;52.67
73594;BME280;62064;53.406;23.500;2022-08-11T16:04:57;100403.50;;;24.68;52.46
73594;BME280;62064;53.406;23.500;2022-08-11T16:07:32;100383.50;;;24.58;52.68
73594;BME280;62064;53.406;23.500;2022-08-11T16:10:12;100395.84;;;24.70;52.22
73594;BME280;62064;53.406;23.500;2022-08-11T16:12:59;100381.84;;;24.62;52.49
73594;BME280;62064;53.406;23.500;2022-08-11T16:15:26;100395.84;;;24.70;52.32
73594;BME280;62064;53.406;23.500;2022-08-11T16:18:15;100392.53;;;24.68;52.33
73594;BME280;62064;53.406;23.500;2022-08-11T16:20:44;100372.25;;;24.59;52.33
73594;BME280;62064;53.406;23.500;2022-08-11T16:23:16;100384.31;;;24.73;51.55
73594;BME280;62064;53.406;23.500;2022-08-11T16:25:43;100388.72;;;24.74;52.02
73594;BME280;62064;53.406;23.500;2022-08-11T16:28:12;100383.22;;;24.69;52.04
73594;BME280;62064;53.406;23.500;2022-08-11T16:30:41;100382.97;;;24.76;52.50
73594;BME280;62064;53.406;23.500;2022-08-11T16:33:10;100382.97;;;24.76;52.17
73594;BME280;62064;53.406;23.500;2022-08-11T16:35:38;100384.88;;;24.80;52.11
73594;BME280;62064;53.406;23.500;2022-08-11T16:38:25;100392.00;;;24.82;51.85
73594;BME280;62064;53.406;23.500;2022-08-11T16:41:10;100386.25;;;24.78;51.83
73594;BME280;62064;53.406;23.500;2022-08-11T16:43:41;100384.34;;;24.78;52.16
73594;BME280;62064;53.406;23.500;2022-08-11T16:46:27;100398.63;;;24.86;51.78
73594;BME280;62064;53.406;23.500;2022-08-11T16:49:23;100375.84;;;24.80;52.31
73594;BME280;62064;53.406;23.500;2022-08-11T16:51:50;100381.34;;;24.85;52.05
73594;BME280;62064;53.406;23.500;2022-08-11T16:54:18;100390.94;;;24.88;52.04
73594;BME280;62064;53.406;23.500;2022-08-11T16:56:46;100381.34;;;24.85;51.70